GCHU weather

Hospital Universitario De Canarias Heliport
Tenerife Island, Canary Islands, Spain

Public forecast

Using degrees Celsius for public forecast. Weather courtesy of forecast.io.

Closest aviation weather report (METAR) to Hospital Universitario De Canarias Heliport

Closest report is Tenerife Norte Airport, 3.1 nm (5.7 km) WNW. Retrieved 2019/10/15 19:30 UTC (27 minutes ago):

GCXO 151930Z 04003KT 320V110 9999 FEW024 17/12 Q1023 NOSIG

Closest aviation forecast (TAF) to Hospital Universitario De Canarias Heliport

Closest forecast is Tenerife Norte Airport, 3.1 nm (5.7 km) WNW. Retrieved 2019/10/15 21:29 UTC (0 seconds ago):

TAF GCXO 152000Z 1521/1621 VRB05KT 9999 SCT015 TX23/1614Z TN16/1605Z PROB40 TEMPO 1522/1608 BKN012